sensor_id;sensor_type;location;lat;lon;timestamp;P1;durP1;ratioP1;P2;durP2;ratioP2
14001;SDS011;7076;51.280;12.584;2022-12-07T00:02:04;6.37;;;3.93;;
14001;SDS011;7076;51.280;12.584;2022-12-07T00:07:07;7.30;;;4.90;;
14001;SDS011;7076;51.280;12.584;2022-12-07T00:12:11;7.30;;;4.87;;
14001;SDS011;7076;51.280;12.584;2022-12-07T00:17:14;7.07;;;4.70;;
14001;SDS011;7076;51.280;12.584;2022-12-07T00:22:17;6.33;;;4.10;;
14001;SDS011;7076;51.280;12.584;2022-12-07T00:27:21;6.57;;;4.40;;
14001;SDS011;7076;51.280;12.584;2022-12-07T00:32:24;8.87;;;4.47;;
14001;SDS011;7076;51.280;12.584;2022-12-07T00:37:26;8.03;;;5.30;;
14001;SDS011;7076;51.280;12.584;2022-12-07T00:42:32;8.60;;;5.00;;
14001;SDS011;7076;51.280;12.584;2022-12-07T00:47:34;7.23;;;5.07;;
14001;SDS011;7076;51.280;12.584;2022-12-07T00:52:37;6.73;;;5.03;;
14001;SDS011;7076;51.280;12.584;2022-12-07T00:57:41;7.53;;;4.70;;
14001;SDS011;7076;51.280;12.584;2022-12-07T01:02:44;7.40;;;5.30;;
14001;SDS011;7076;51.280;12.584;2022-12-07T01:07:47;8.07;;;5.57;;
14001;SDS011;7076;51.280;12.584;2022-12-07T01:12:51;7.10;;;5.20;;
14001;SDS011;7076;51.280;12.584;2022-12-07T01:17:54;9.47;;;6.27;;
14001;SDS011;7076;51.280;12.584;2022-12-07T01:22:57;6.83;;;5.00;;
14001;SDS011;7076;51.280;12.584;2022-12-07T01:28:01;7.37;;;5.23;;
14001;SDS011;7076;51.280;12.584;2022-12-07T01:33:03;7.43;;;5.20;;
14001;SDS011;7076;51.280;12.584;2022-12-07T01:38:06;8.90;;;5.13;;
14001;SDS011;7076;51.280;12.584;2022-12-07T01:43:14;5.93;;;4.57;;
14001;SDS011;7076;51.280;12.584;2022-12-07T01:48:20;6.77;;;4.87;;
14001;SDS011;7076;51.280;12.584;2022-12-07T01:53:26;6.17;;;4.70;;
14001;SDS011;7076;51.280;12.584;2022-12-07T01:58:32;5.37;;;4.10;;
14001;SDS011;7076;51.280;12.584;2022-12-07T02:03:36;8.23;;;5.37;;
14001;SDS011;7076;51.280;12.584;2022-12-07T02:08:40;8.47;;;4.73;;
14001;SDS011;7076;51.280;12.584;2022-12-07T02:13:45;7.00;;;4.63;;
14001;SDS011;7076;51.280;12.584;2022-12-07T02:18:52;7.93;;;4.77;;
14001;SDS011;7076;51.280;12.584;2022-12-07T02:24:15;5.23;;;3.90;;
14001;SDS011;7076;51.280;12.584;2022-12-07T02:29:27;6.30;;;4.40;;
14001;SDS011;7076;51.280;12.584;2022-12-07T02:34:39;6.33;;;4.03;;
14001;SDS011;7076;51.280;12.584;2022-12-07T02:39:48;6.80;;;4.43;;
14001;SDS011;7076;51.280;12.584;2022-12-07T02:44:55;7.30;;;4.07;;
14001;SDS011;7076;51.280;12.584;2022-12-07T02:49:58;6.13;;;4.07;;
14001;SDS011;7076;51.280;12.584;2022-12-07T02:55:01;6.13;;;4.13;;
14001;SDS011;7076;51.280;12.584;2022-12-07T03:00:07;7.30;;;3.97;;
14001;SDS011;7076;51.280;12.584;2022-12-07T03:05:24;7.00;;;4.10;;
14001;SDS011;7076;51.280;12.584;2022-12-07T03:10:40;5.30;;;3.77;;
14001;SDS011;7076;51.280;12.584;2022-12-07T03:15:49;5.13;;;3.87;;
14001;SDS011;7076;51.280;12.584;2022-12-07T03:20:57;7.40;;;4.33;;
14001;SDS011;7076;51.280;12.584;2022-12-07T03:26:02;6.23;;;3.97;;
14001;SDS011;7076;51.280;12.584;2022-12-07T03:31:09;5.63;;;4.00;;
14001;SDS011;7076;51.280;12.584;2022-12-07T03:36:18;4.83;;;3.70;;
14001;SDS011;7076;51.280;12.584;2022-12-07T03:41:24;4.70;;;3.60;;
14001;SDS011;7076;51.280;12.584;2022-12-07T03:46:32;6.00;;;3.93;;
14001;SDS011;7076;51.280;12.584;2022-12-07T03:51:39;5.00;;;3.43;;
14001;SDS011;7076;51.280;12.584;2022-12-07T03:56:44;6.27;;;3.93;;
14001;SDS011;7076;51.280;12.584;2022-12-07T04:01:52;7.10;;;4.47;;
14001;SDS011;7076;51.280;12.584;2022-12-07T04:06:56;12.10;;;4.13;;
14001;SDS011;7076;51.280;12.584;2022-12-07T04:11:59;7.90;;;3.60;;
14001;SDS011;7076;51.280;12.584;2022-12-07T04:17:03;5.53;;;3.53;;
14001;SDS011;7076;51.280;12.584;2022-12-07T04:22:06;6.23;;;3.60;;
14001;SDS011;7076;51.280;12.584;2022-12-07T04:27:09;5.57;;;3.80;;
14001;SDS011;7076;51.280;12.584;2022-12-07T04:32:13;4.70;;;3.20;;
14001;SDS011;7076;51.280;12.584;2022-12-07T04:37:15;5.27;;;3.57;;
14001;SDS011;7076;51.280;12.584;2022-12-07T04:42:18;5.73;;;3.70;;
14001;SDS011;7076;51.280;12.584;2022-12-07T04:47:22;4.33;;;3.47;;
14001;SDS011;7076;51.280;12.584;2022-12-07T04:52:26;7.27;;;3.73;;
14001;SDS011;7076;51.280;12.584;2022-12-07T04:57:29;4.63;;;3.17;;
14001;SDS011;7076;51.280;12.584;2022-12-07T05:02:33;4.20;;;3.10;;
14001;SDS011;7076;51.280;12.584;2022-12-07T05:07:36;6.33;;;3.60;;
14001;SDS011;7076;51.280;12.584;2022-12-07T05:12:39;5.00;;;3.53;;
14001;SDS011;7076;51.280;12.584;2022-12-07T05:17:43;5.70;;;3.57;;
14001;SDS011;7076;51.280;12.584;2022-12-07T05:22:46;5.77;;;3.33;;
14001;SDS011;7076;51.280;12.584;2022-12-07T05:27:49;5.80;;;3.57;;
14001;SDS011;7076;51.280;12.584;2022-12-07T05:32:53;4.47;;;3.63;;
14001;SDS011;7076;51.280;12.584;2022-12-07T05:37:56;7.73;;;3.30;;
14001;SDS011;7076;51.280;12.584;2022-12-07T05:42:59;4.53;;;3.27;;
14001;SDS011;7076;51.280;12.584;2022-12-07T05:48:07;5.40;;;3.53;;
14001;SDS011;7076;51.280;12.584;2022-12-07T05:53:09;5.17;;;3.47;;
14001;SDS011;7076;51.280;12.584;2022-12-07T05:58:12;7.33;;;3.80;;
14001;SDS011;7076;51.280;12.584;2022-12-07T06:03:34;5.40;;;3.40;;
14001;SDS011;7076;51.280;12.584;2022-12-07T06:08:37;4.63;;;3.83;;
14001;SDS011;7076;51.280;12.584;2022-12-07T06:13:39;6.33;;;4.60;;
14001;SDS011;7076;51.280;12.584;2022-12-07T06:18:49;7.50;;;4.87;;
14001;SDS011;7076;51.280;12.584;2022-12-07T06:23:52;7.40;;;4.60;;
14001;SDS011;7076;51.280;12.584;2022-12-07T06:28:54;7.37;;;5.73;;
14001;SDS011;7076;51.280;12.584;2022-12-07T06:33:59;11.13;;;6.20;;
14001;SDS011;7076;51.280;12.584;2022-12-07T06:39:02;8.17;;;5.77;;
14001;SDS011;7076;51.280;12.584;2022-12-07T06:44:06;8.03;;;5.80;;
14001;SDS011;7076;51.280;12.584;2022-12-07T06:49:10;10.17;;;5.43;;
14001;SDS011;7076;51.280;12.584;2022-12-07T06:54:13;8.77;;;5.57;;
14001;SDS011;7076;51.280;12.584;2022-12-07T06:59:17;8.73;;;5.60;;
14001;SDS011;7076;51.280;12.584;2022-12-07T07:04:21;9.20;;;6.17;;
14001;SDS011;7076;51.280;12.584;2022-12-07T07:09:24;8.53;;;5.80;;
14001;SDS011;7076;51.280;12.584;2022-12-07T07:14:27;9.30;;;6.33;;
14001;SDS011;7076;51.280;12.584;2022-12-07T07:19:32;9.23;;;6.30;;
14001;SDS011;7076;51.280;12.584;2022-12-07T07:24:34;9.80;;;6.40;;
14001;SDS011;7076;51.280;12.584;2022-12-07T07:29:37;8.90;;;6.73;;
14001;SDS011;7076;51.280;12.584;2022-12-07T07:34:41;10.40;;;6.87;;
14001;SDS011;7076;51.280;12.584;2022-12-07T07:39:44;9.13;;;6.23;;
14001;SDS011;7076;51.280;12.584;2022-12-07T07:44:47;9.07;;;6.50;;
14001;SDS011;7076;51.280;12.584;2022-12-07T07:49:51;10.03;;;6.83;;
14001;SDS011;7076;51.280;12.584;2022-12-07T07:54:54;10.93;;;7.40;;
14001;SDS011;7076;51.280;12.584;2022-12-07T07:59:56;11.17;;;6.70;;
14001;SDS011;7076;51.280;12.584;2022-12-07T08:05:01;10.23;;;6.67;;
14001;SDS011;7076;51.280;12.584;2022-12-07T08:10:04;9.20;;;6.70;;
14001;SDS011;7076;51.280;12.584;2022-12-07T08:15:08;7.43;;;5.33;;
14001;SDS011;7076;51.280;12.584;2022-12-07T08:20:13;8.80;;;5.87;;
14001;SDS011;7076;51.280;12.584;2022-12-07T08:25:16;9.10;;;6.23;;
14001;SDS011;7076;51.280;12.584;2022-12-07T08:30:19;9.73;;;6.00;;
14001;SDS011;7076;51.280;12.584;2022-12-07T08:35:24;9.10;;;5.30;;
14001;SDS011;7076;51.280;12.584;2022-12-07T08:40:27;8.97;;;6.00;;
14001;SDS011;7076;51.280;12.584;2022-12-07T08:45:30;7.83;;;5.23;;
14001;SDS011;7076;51.280;12.584;2022-12-07T08:50:38;8.37;;;5.20;;
14001;SDS011;7076;51.280;12.584;2022-12-07T08:55:49;7.80;;;4.50;;
14001;SDS011;7076;51.280;12.584;2022-12-07T09:00:52;8.53;;;5.40;;
14001;SDS011;7076;51.280;12.584;2022-12-07T09:05:56;9.33;;;5.23;;
14001;SDS011;7076;51.280;12.584;2022-12-07T09:11:00;8.57;;;5.50;;
14001;SDS011;7076;51.280;12.584;2022-12-07T09:16:03;8.50;;;5.03;;
14001;SDS011;7076;51.280;12.584;2022-12-07T09:21:08;7.47;;;4.80;;
14001;SDS011;7076;51.280;12.584;2022-12-07T09:26:11;6.90;;;4.90;;
14001;SDS011;7076;51.280;12.584;2022-12-07T09:31:14;7.43;;;4.77;;
14001;SDS011;7076;51.280;12.584;2022-12-07T09:36:28;7.87;;;4.50;;
14001;SDS011;7076;51.280;12.584;2022-12-07T09:41:31;8.90;;;5.20;;
14001;SDS011;7076;51.280;12.584;2022-12-07T09:46:35;6.60;;;4.97;;
14001;SDS011;7076;51.280;12.584;2022-12-07T09:51:40;6.87;;;5.07;;
14001;SDS011;7076;51.280;12.584;2022-12-07T09:56:43;7.83;;;4.63;;
14001;SDS011;7076;51.280;12.584;2022-12-07T10:01:48;8.97;;;4.63;;
14001;SDS011;7076;51.280;12.584;2022-12-07T10:06:53;6.90;;;4.73;;
14001;SDS011;7076;51.280;12.584;2022-12-07T10:12:00;11.70;;;4.70;;
14001;SDS011;7076;51.280;12.584;2022-12-07T10:17:12;7.50;;;4.50;;
14001;SDS011;7076;51.280;12.584;2022-12-07T10:22:32;9.67;;;4.80;;
14001;SDS011;7076;51.280;12.584;2022-12-07T10:27:35;6.80;;;4.27;;
14001;SDS011;7076;51.280;12.584;2022-12-07T10:32:38;7.03;;;5.10;;
14001;SDS011;7076;51.280;12.584;2022-12-07T10:37:42;5.93;;;4.10;;
14001;SDS011;7076;51.280;12.584;2022-12-07T10:42:46;7.63;;;4.40;;
14001;SDS011;7076;51.280;12.584;2022-12-07T10:48:04;5.87;;;4.10;;
14001;SDS011;7076;51.280;12.584;2022-12-07T10:53:19;11.53;;;4.10;;
14001;SDS011;7076;51.280;12.584;2022-12-07T10:58:31;6.50;;;3.93;;
14001;SDS011;7076;51.280;12.584;2022-12-07T11:03:44;7.10;;;4.50;;
14001;SDS011;7076;51.280;12.584;2022-12-07T11:08:57;7.67;;;4.03;;
14001;SDS011;7076;51.280;12.584;2022-12-07T11:14:05;9.10;;;4.43;;
14001;SDS011;7076;51.280;12.584;2022-12-07T11:19:25;6.23;;;4.17;;
14001;SDS011;7076;51.280;12.584;2022-12-07T11:24:40;6.43;;;3.93;;
14001;SDS011;7076;51.280;12.584;2022-12-07T11:29:55;4.17;;;2.90;;
14001;SDS011;7076;51.280;12.584;2022-12-07T11:35:08;3.93;;;2.73;;
14001;SDS011;7076;51.280;12.584;2022-12-07T11:40:17;6.93;;;3.30;;
14001;SDS011;7076;51.280;12.584;2022-12-07T11:45:23;5.30;;;3.43;;
14001;SDS011;7076;51.280;12.584;2022-12-07T11:50:32;4.60;;;2.90;;
14001;SDS011;7076;51.280;12.584;2022-12-07T11:55:41;6.83;;;3.60;;
14001;SDS011;7076;51.280;12.584;2022-12-07T12:00:46;3.63;;;3.10;;
14001;SDS011;7076;51.280;12.584;2022-12-07T12:05:50;6.53;;;3.30;;
14001;SDS011;7076;51.280;12.584;2022-12-07T12:10:55;5.07;;;3.80;;
14001;SDS011;7076;51.280;12.584;2022-12-07T12:16:29;5.50;;;3.10;;
14001;SDS011;7076;51.280;12.584;2022-12-07T12:21:44;4.00;;;2.60;;
14001;SDS011;7076;51.280;12.584;2022-12-07T12:26:50;6.47;;;3.70;;
14001;SDS011;7076;51.280;12.584;2022-12-07T12:32:05;3.60;;;2.40;;
14001;SDS011;7076;51.280;12.584;2022-12-07T12:42:48;5.13;;;1.90;;
14001;SDS011;7076;51.280;12.584;2022-12-07T12:47:56;3.97;;;2.07;;
14001;SDS011;7076;51.280;12.584;2022-12-07T12:53:05;4.23;;;2.00;;
14001;SDS011;7076;51.280;12.584;2022-12-07T12:58:31;3.43;;;1.97;;
14001;SDS011;7076;51.280;12.584;2022-12-07T13:03:35;2.73;;;1.53;;
14001;SDS011;7076;51.280;12.584;2022-12-07T13:08:39;2.80;;;1.80;;
14001;SDS011;7076;51.280;12.584;2022-12-07T13:13:44;2.80;;;1.60;;
14001;SDS011;7076;51.280;12.584;2022-12-07T13:18:47;2.67;;;1.50;;
14001;SDS011;7076;51.280;12.584;2022-12-07T13:23:54;2.50;;;1.37;;
14001;SDS011;7076;51.280;12.584;2022-12-07T13:29:06;2.37;;;1.30;;
14001;SDS011;7076;51.280;12.584;2022-12-07T13:34:28;6.03;;;1.57;;
14001;SDS011;7076;51.280;12.584;2022-12-07T13:39:32;2.73;;;1.33;;
14001;SDS011;7076;51.280;12.584;2022-12-07T13:44:39;3.13;;;1.27;;
14001;SDS011;7076;51.280;12.584;2022-12-07T13:49:46;1.40;;;1.07;;
14001;SDS011;7076;51.280;12.584;2022-12-07T13:54:55;2.03;;;1.10;;
14001;SDS011;7076;51.280;12.584;2022-12-07T14:00:00;0.90;;;0.80;;
14001;SDS011;7076;51.280;12.584;2022-12-07T14:05:09;2.27;;;1.50;;
14001;SDS011;7076;51.280;12.584;2022-12-07T14:10:22;4.13;;;1.27;;
14001;SDS011;7076;51.280;12.584;2022-12-07T14:15:28;2.47;;;1.60;;
14001;SDS011;7076;51.280;12.584;2022-12-07T14:20:32;1.30;;;1.10;;
14001;SDS011;7076;51.280;12.584;2022-12-07T14:25:44;1.17;;;0.83;;
14001;SDS011;7076;51.280;12.584;2022-12-07T14:30:53;1.20;;;1.00;;
14001;SDS011;7076;51.280;12.584;2022-12-07T14:35:56;2.10;;;1.10;;
14001;SDS011;7076;51.280;12.584;2022-12-07T14:40:59;2.00;;;0.93;;
14001;SDS011;7076;51.280;12.584;2022-12-07T14:46:17;4.43;;;1.10;;
14001;SDS011;7076;51.280;12.584;2022-12-07T14:51:20;4.40;;;1.20;;
14001;SDS011;7076;51.280;12.584;2022-12-07T14:56:43;1.43;;;0.90;;
14001;SDS011;7076;51.280;12.584;2022-12-07T15:01:48;3.27;;;0.90;;
14001;SDS011;7076;51.280;12.584;2022-12-07T15:06:55;1.90;;;1.10;;
14001;SDS011;7076;51.280;12.584;2022-12-07T15:11:58;2.07;;;0.80;;
14001;SDS011;7076;51.280;12.584;2022-12-07T15:17:02;1.40;;;0.83;;
14001;SDS011;7076;51.280;12.584;2022-12-07T15:22:15;2.80;;;1.03;;
14001;SDS011;7076;51.280;12.584;2022-12-07T15:27:17;2.03;;;1.00;;
14001;SDS011;7076;51.280;12.584;2022-12-07T15:32:22;1.53;;;1.00;;
14001;SDS011;7076;51.280;12.584;2022-12-07T15:37:28;3.77;;;1.20;;
14001;SDS011;7076;51.280;12.584;2022-12-07T15:42:31;3.33;;;1.27;;
14001;SDS011;7076;51.280;12.584;2022-12-07T15:47:35;1.70;;;1.30;;
14001;SDS011;7076;51.280;12.584;2022-12-07T15:52:59;4.70;;;1.20;;
14001;SDS011;7076;51.280;12.584;2022-12-07T15:58:02;2.70;;;1.10;;
14001;SDS011;7076;51.280;12.584;2022-12-07T16:03:06;2.20;;;1.10;;
14001;SDS011;7076;51.280;12.584;2022-12-07T16:08:09;1.00;;;0.90;;
14001;SDS011;7076;51.280;12.584;2022-12-07T16:13:12;1.63;;;1.10;;
14001;SDS011;7076;51.280;12.584;2022-12-07T16:18:16;5.07;;;1.40;;
14001;SDS011;7076;51.280;12.584;2022-12-07T16:23:19;3.33;;;1.10;;
14001;SDS011;7076;51.280;12.584;2022-12-07T16:28:22;3.47;;;1.33;;
14001;SDS011;7076;51.280;12.584;2022-12-07T16:33:26;2.93;;;1.20;;
14001;SDS011;7076;51.280;12.584;2022-12-07T16:38:29;2.67;;;0.90;;
14001;SDS011;7076;51.280;12.584;2022-12-07T16:43:32;1.53;;;1.17;;
14001;SDS011;7076;51.280;12.584;2022-12-07T16:48:37;3.93;;;1.53;;
14001;SDS011;7076;51.280;12.584;2022-12-07T16:53:41;5.07;;;1.37;;
14001;SDS011;7076;51.280;12.584;2022-12-07T16:58:44;4.17;;;1.53;;
14001;SDS011;7076;51.280;12.584;2022-12-07T17:03:50;2.30;;;1.30;;
14001;SDS011;7076;51.280;12.584;2022-12-07T17:08:53;2.10;;;1.20;;
14001;SDS011;7076;51.280;12.584;2022-12-07T17:13:57;2.43;;;0.90;;
14001;SDS011;7076;51.280;12.584;2022-12-07T17:19:18;1.93;;;1.00;;
14001;SDS011;7076;51.280;12.584;2022-12-07T17:24:21;2.50;;;1.20;;
14001;SDS011;7076;51.280;12.584;2022-12-07T17:29:24;2.43;;;1.30;;
14001;SDS011;7076;51.280;12.584;2022-12-07T17:34:28;3.03;;;1.70;;
14001;SDS011;7076;51.280;12.584;2022-12-07T17:39:31;8.90;;;4.63;;
14001;SDS011;7076;51.280;12.584;2022-12-07T17:44:34;3.07;;;1.37;;
14001;SDS011;7076;51.280;12.584;2022-12-07T17:49:38;7.07;;;1.33;;
14001;SDS011;7076;51.280;12.584;2022-12-07T17:54:41;2.97;;;1.40;;
14001;SDS011;7076;51.280;12.584;2022-12-07T17:59:44;6.03;;;1.47;;
14001;SDS011;7076;51.280;12.584;2022-12-07T18:04:48;3.40;;;1.17;;
14001;SDS011;7076;51.280;12.584;2022-12-07T18:09:50;2.10;;;1.40;;
14001;SDS011;7076;51.280;12.584;2022-12-07T18:14:54;4.47;;;1.40;;
14001;SDS011;7076;51.280;12.584;2022-12-07T18:19:58;3.43;;;1.40;;
14001;SDS011;7076;51.280;12.584;2022-12-07T18:25:01;2.37;;;1.20;;
14001;SDS011;7076;51.280;12.584;2022-12-07T18:30:04;3.40;;;1.13;;
14001;SDS011;7076;51.280;12.584;2022-12-07T18:35:10;4.73;;;1.63;;
14001;SDS011;7076;51.280;12.584;2022-12-07T18:40:13;2.80;;;1.50;;
14001;SDS011;7076;51.280;12.584;2022-12-07T18:45:16;2.43;;;1.20;;
14001;SDS011;7076;51.280;12.584;2022-12-07T18:50:20;3.77;;;2.00;;
14001;SDS011;7076;51.280;12.584;2022-12-07T18:55:22;2.43;;;1.50;;
14001;SDS011;7076;51.280;12.584;2022-12-07T19:00:26;3.00;;;1.40;;
14001;SDS011;7076;51.280;12.584;2022-12-07T19:05:31;1.90;;;1.30;;
14001;SDS011;7076;51.280;12.584;2022-12-07T19:10:34;3.57;;;2.17;;
14001;SDS011;7076;51.280;12.584;2022-12-07T19:15:38;2.73;;;1.13;;
14001;SDS011;7076;51.280;12.584;2022-12-07T19:20:42;4.33;;;1.47;;
14001;SDS011;7076;51.280;12.584;2022-12-07T19:25:45;2.70;;;1.60;;
14001;SDS011;7076;51.280;12.584;2022-12-07T19:30:48;2.53;;;1.47;;
14001;SDS011;7076;51.280;12.584;2022-12-07T19:35:52;3.20;;;1.40;;
14001;SDS011;7076;51.280;12.584;2022-12-07T19:41:02;3.50;;;1.60;;
14001;SDS011;7076;51.280;12.584;2022-12-07T19:46:06;5.37;;;1.80;;
14001;SDS011;7076;51.280;12.584;2022-12-07T19:51:11;2.03;;;1.50;;
14001;SDS011;7076;51.280;12.584;2022-12-07T19:56:14;3.67;;;1.50;;
14001;SDS011;7076;51.280;12.584;2022-12-07T20:01:17;3.83;;;1.43;;
14001;SDS011;7076;51.280;12.584;2022-12-07T20:06:21;2.33;;;1.57;;
14001;SDS011;7076;51.280;12.584;2022-12-07T20:11:25;2.97;;;2.00;;
14001;SDS011;7076;51.280;12.584;2022-12-07T20:16:46;3.17;;;1.47;;
14001;SDS011;7076;51.280;12.584;2022-12-07T20:21:50;2.63;;;1.87;;
14001;SDS011;7076;51.280;12.584;2022-12-07T20:26:54;3.70;;;1.80;;
14001;SDS011;7076;51.280;12.584;2022-12-07T20:31:56;3.07;;;1.60;;
14001;SDS011;7076;51.280;12.584;2022-12-07T20:37:01;1.40;;;1.30;;
14001;SDS011;7076;51.280;12.584;2022-12-07T20:42:04;3.60;;;1.63;;
14001;SDS011;7076;51.280;12.584;2022-12-07T20:47:24;2.83;;;1.67;;
14001;SDS011;7076;51.280;12.584;2022-12-07T20:52:29;3.70;;;1.77;;
14001;SDS011;7076;51.280;12.584;2022-12-07T20:57:32;3.37;;;1.60;;
14001;SDS011;7076;51.280;12.584;2022-12-07T21:02:37;2.53;;;1.80;;
14001;SDS011;7076;51.280;12.584;2022-12-07T21:07:42;3.87;;;2.00;;
14001;SDS011;7076;51.280;12.584;2022-12-07T21:12:45;2.57;;;1.60;;
14001;SDS011;7076;51.280;12.584;2022-12-07T21:17:55;6.17;;;2.13;;
14001;SDS011;7076;51.280;12.584;2022-12-07T21:23:07;3.80;;;2.00;;
14001;SDS011;7076;51.280;12.584;2022-12-07T21:28:10;3.83;;;2.10;;
14001;SDS011;7076;51.280;12.584;2022-12-07T21:33:13;2.47;;;2.17;;
14001;SDS011;7076;51.280;12.584;2022-12-07T21:38:17;3.60;;;2.00;;
14001;SDS011;7076;51.280;12.584;2022-12-07T21:43:20;3.40;;;2.03;;
14001;SDS011;7076;51.280;12.584;2022-12-07T21:48:23;3.33;;;1.87;;
14001;SDS011;7076;51.280;12.584;2022-12-07T21:53:27;4.97;;;1.93;;
14001;SDS011;7076;51.280;12.584;2022-12-07T21:58:30;2.30;;;1.67;;
14001;SDS011;7076;51.280;12.584;2022-12-07T22:03:32;3.93;;;2.00;;
14001;SDS011;7076;51.280;12.584;2022-12-07T22:08:37;5.67;;;2.30;;
14001;SDS011;7076;51.280;12.584;2022-12-07T22:13:40;3.13;;;2.30;;
14001;SDS011;7076;51.280;12.584;2022-12-07T22:19:10;4.53;;;1.97;;
14001;SDS011;7076;51.280;12.584;2022-12-07T22:24:14;2.63;;;2.20;;
14001;SDS011;7076;51.280;12.584;2022-12-07T22:29:17;2.93;;;2.03;;
14001;SDS011;7076;51.280;12.584;2022-12-07T22:34:21;3.10;;;1.83;;
14001;SDS011;7076;51.280;12.584;2022-12-07T22:39:25;3.77;;;2.30;;
14001;SDS011;7076;51.280;12.584;2022-12-07T22:44:28;3.53;;;2.13;;
14001;SDS011;7076;51.280;12.584;2022-12-07T22:49:31;4.23;;;2.20;;
14001;SDS011;7076;51.280;12.584;2022-12-07T22:54:35;5.87;;;2.17;;
14001;SDS011;7076;51.280;12.584;2022-12-07T22:59:38;5.73;;;2.03;;
14001;SDS011;7076;51.280;12.584;2022-12-07T23:04:41;4.40;;;2.33;;
14001;SDS011;7076;51.280;12.584;2022-12-07T23:09:45;3.67;;;2.50;;
14001;SDS011;7076;51.280;12.584;2022-12-07T23:14:48;5.33;;;2.90;;
14001;SDS011;7076;51.280;12.584;2022-12-07T23:19:54;4.13;;;2.17;;
14001;SDS011;7076;51.280;12.584;2022-12-07T23:24:58;4.20;;;2.20;;
14001;SDS011;7076;51.280;12.584;2022-12-07T23:30:01;4.23;;;3.00;;
14001;SDS011;7076;51.280;12.584;2022-12-07T23:35:05;4.13;;;2.23;;
14001;SDS011;7076;51.280;12.584;2022-12-07T23:40:10;4.93;;;2.33;;
14001;SDS011;7076;51.280;12.584;2022-12-07T23:45:13;4.30;;;2.07;;
14001;SDS011;7076;51.280;12.584;2022-12-07T23:50:16;4.37;;;2.30;;
14001;SDS011;7076;51.280;12.584;2022-12-07T23:55:20;3.47;;;2.10;;
